King, North Carolina
Current Conditions -  °F | °C
As of 10:33 PM on Friday 31 Oct 2014 (Local Time) from KINT Reporting Station
Moderate Rain Moderate Rain  
Wind Chill: 44°   Ceiling: 3800
Heat Index: 47°   Visibility: 4mi
Dew Point: 44°   Wind: 7mph
Humidity: 90%   Direction: 320°NW
Pressure: 29.81"   Gusts: NA
Location:  36.28°N, 80.36°W
Report Text: KINT 010233Z 32006KT 4SM RA BR SCT028 OVC038 08/07 A2981 RMK AO2 P0007 T00830067
Loading
Personal Weather Stations






























Interactive Weather Map
Tropical Storm Tracking
New forecast layout! Learn more

10-Day Weather Forecast

Advertisements
Track Severe Weather on mobile